createdAt,value
2019-02-11T00:01:25.550Z,99827.13
2019-02-11T00:03:59.733Z,99821.05
2019-02-11T00:06:28.239Z,99702.29
2019-02-11T00:08:58.700Z,99838.17
2019-02-11T00:11:29.141Z,99838.77
2019-02-11T00:14:00.770Z,99834.41
2019-02-11T00:16:31.172Z,99821.05
2019-02-11T00:19:01.673Z,99705.22
2019-02-11T00:21:32.136Z,99822.17
2019-02-11T00:24:02.628Z,99828.84
2019-02-11T00:26:33.088Z,99813.81
2019-02-11T00:29:06.452Z,99806.16
2019-02-11T00:31:36.904Z,99811.97
2019-02-11T00:34:07.365Z,99811.97
2019-02-11T00:36:37.860Z,99819.09
2019-02-11T00:39:08.850Z,99818.16
2019-02-11T00:41:39.310Z,99817.18
2019-02-11T00:44:09.805Z,99818.77
2019-02-11T00:46:40.271Z,99818.99
2019-02-11T00:49:10.816Z,99825.13
2019-02-11T00:51:41.326Z,99810.63
2019-02-11T00:54:11.801Z,99809.62
2019-02-11T00:56:42.250Z,99790.11
2019-02-11T00:59:12.724Z,99698.72
2019-02-11T01:01:43.216Z,99698.72
2019-02-11T01:04:13.708Z,99810.70
2019-02-11T01:06:44.173Z,99802.01
2019-02-11T01:09:14.680Z,99802.01
2019-02-11T01:11:45.138Z,99801.19
2019-02-11T01:14:15.604Z,99798.35
2019-02-11T01:16:46.097Z,99798.88
2019-02-11T01:19:16.587Z,99795.25
2019-02-11T01:21:47.088Z,99792.45
2019-02-11T01:24:17.544Z,99790.70
2019-02-11T01:26:48.041Z,99780.93
2019-02-11T01:29:18.496Z,99779.86
2019-02-11T01:31:49.010Z,99785.01
2019-02-11T01:34:19.519Z,99791.59
2019-02-11T01:36:50.027Z,99788.61
2019-02-11T01:39:20.491Z,99799.33
2019-02-11T01:41:50.952Z,99810.42
2019-02-11T01:44:21.448Z,99804.94
2019-02-11T01:46:51.909Z,99803.47
2019-02-11T01:49:22.417Z,99803.93
2019-02-11T01:51:52.882Z,99794.27
2019-02-11T01:54:23.359Z,99785.53
2019-02-11T01:56:53.863Z,99778.70
2019-02-11T01:59:24.377Z,99778.70
2019-02-11T02:01:54.870Z,99784.95
2019-02-11T02:04:25.332Z,99781.45
2019-02-11T02:06:55.821Z,99777.23
2019-02-11T02:09:26.383Z,99776.72
2019-02-11T02:11:56.879Z,99768.16
2019-02-11T02:14:27.328Z,99767.28
2019-02-11T02:16:57.869Z,99763.25
2019-02-11T02:19:28.356Z,99755.91
2019-02-11T02:21:58.826Z,99760.18
2019-02-11T02:24:29.339Z,99757.84
2019-02-11T02:26:59.794Z,99747.88
2019-02-11T02:29:30.301Z,99752.83
2019-02-11T02:32:00.760Z,99753.53
2019-02-11T02:34:31.249Z,99744.08
2019-02-11T02:37:01.711Z,99737.15
2019-02-11T02:39:32.169Z,99714.49
2019-02-11T02:42:02.672Z,99712.61
2019-02-11T02:44:33.249Z,99720.33
2019-02-11T02:47:03.746Z,99722.30
2019-02-11T02:49:34.277Z,99733.79
2019-02-11T02:52:04.786Z,99746.97
2019-02-11T02:54:35.261Z,99747.47
2019-02-11T02:57:05.764Z,99743.58
2019-02-11T02:59:36.267Z,99735.28
2019-02-11T03:02:06.834Z,99739.56
2019-02-11T03:04:37.415Z,99734.22
2019-02-11T03:07:07.562Z,99722.05
2019-02-11T03:09:38.067Z,99722.59
2019-02-11T03:12:08.560Z,99722.83
2019-02-11T03:14:39.032Z,99734.47
2019-02-11T03:17:09.523Z,99732.43
2019-02-11T03:19:39.991Z,99730.39
2019-02-11T03:22:10.482Z,99724.45
2019-02-11T03:24:40.944Z,99718.69
2019-02-11T03:27:11.513Z,99727.77
2019-02-11T03:29:42.005Z,99731.45
2019-02-11T03:32:12.495Z,99714.80
2019-02-11T03:34:42.990Z,99724.11
2019-02-11T03:37:13.492Z,99724.17
2019-02-11T03:39:43.941Z,99721.37
2019-02-11T03:42:14.438Z,99722.34
2019-02-11T03:44:44.915Z,99721.64
2019-02-11T03:47:15.414Z,99716.80
2019-02-11T03:49:45.867Z,99727.64
2019-02-11T03:52:16.466Z,99709.94
2019-02-11T03:54:46.972Z,99713.02
2019-02-11T03:57:17.436Z,99713.97
2019-02-11T03:59:47.891Z,99716.20
2019-02-11T04:02:18.393Z,99725.27
2019-02-11T04:04:48.885Z,99733.83
2019-02-11T04:07:19.336Z,99724.30
2019-02-11T04:09:49.835Z,99714.22
2019-02-11T04:12:20.300Z,99715.65
2019-02-11T04:14:50.799Z,99705.41
2019-02-11T04:17:21.295Z,99704.53
2019-02-11T04:19:51.814Z,99698.66
2019-02-11T04:22:22.328Z,99693.63
2019-02-11T04:24:52.791Z,99698.72
2019-02-11T04:27:23.279Z,99686.66
2019-02-11T04:29:53.732Z,99684.80
2019-02-11T04:32:24.207Z,99673.02
2019-02-11T04:34:54.710Z,99662.25
2019-02-11T04:37:25.179Z,99652.81
2019-02-11T04:39:55.690Z,99652.05
2019-02-11T04:42:26.153Z,99654.80
2019-02-11T04:44:56.615Z,99644.03
2019-02-11T04:47:27.108Z,99639.06
2019-02-11T04:49:57.613Z,99617.89
2019-02-11T04:52:28.232Z,99615.33
2019-02-11T04:54:58.736Z,99615.60
2019-02-11T04:57:29.203Z,99615.27
2019-02-11T04:59:59.723Z,99612.70
2019-02-11T05:02:30.220Z,99616.02
2019-02-11T05:05:00.731Z,99605.13
2019-02-11T05:07:31.185Z,99594.88
2019-02-11T05:10:01.671Z,99593.84
2019-02-11T05:12:32.120Z,99595.00
2019-02-11T05:15:02.601Z,99605.89
2019-02-11T05:17:33.096Z,99612.59
2019-02-11T05:20:03.562Z,99609.91
2019-02-11T05:22:34.070Z,99624.52
2019-02-11T05:25:04.681Z,99633.25
2019-02-11T05:27:35.171Z,99643.82
2019-02-11T05:30:06.674Z,99660.47
2019-02-11T05:32:37.240Z,99679.92
2019-02-11T05:35:07.900Z,99672.10
2019-02-11T05:37:38.486Z,99671.77
2019-02-11T05:40:10.301Z,99670.67
2019-02-11T05:42:40.754Z,99670.44
2019-02-11T05:45:11.450Z,99660.13
2019-02-11T05:47:41.916Z,99643.44
2019-02-11T05:50:12.558Z,99647.16
2019-02-11T05:52:43.089Z,99647.23
2019-02-11T05:55:13.681Z,99654.33
2019-02-11T05:57:44.177Z,99657.13
2019-02-11T06:00:16.577Z,99655.72
2019-02-11T06:02:47.119Z,99652.86
2019-02-11T06:05:17.586Z,99646.07
2019-02-11T06:07:48.076Z,99633.77
2019-02-11T06:10:18.590Z,99587.97
2019-02-11T06:12:51.576Z,99621.84
2019-02-11T06:15:22.058Z,99610.88
2019-02-11T06:17:52.609Z,99619.80
2019-02-11T06:20:23.228Z,99639.38
2019-02-11T06:22:53.689Z,99637.91
2019-02-11T06:25:24.291Z,99634.52
2019-02-11T06:27:54.871Z,99628.64
2019-02-11T06:30:25.512Z,99628.64
2019-02-11T06:32:56.101Z,99637.96
2019-02-11T06:35:26.616Z,99650.00
2019-02-11T06:37:57.137Z,99650.00
2019-02-11T06:40:27.615Z,99650.64
2019-02-11T06:42:58.123Z,99657.87
2019-02-11T06:45:28.710Z,99676.17
2019-02-11T06:47:59.208Z,99681.16
2019-02-11T06:50:29.691Z,99713.31
2019-02-11T06:53:00.163Z,99707.17
2019-02-11T06:55:30.673Z,99712.73
2019-02-11T06:58:09.772Z,99710.04
2019-02-11T07:00:40.209Z,99698.20
2019-02-11T07:03:10.691Z,99680.53
2019-02-11T07:05:41.227Z,99674.01
2019-02-11T07:08:11.812Z,99656.08
2019-02-11T07:10:42.295Z,99650.03
2019-02-11T07:13:12.804Z,99652.05
2019-02-11T07:15:43.288Z,99663.17
2019-02-11T07:18:13.776Z,99675.17
2019-02-11T07:20:44.284Z,99669.75
2019-02-11T07:23:14.781Z,99667.21
2019-02-11T07:25:45.300Z,99666.33
2019-02-11T07:28:15.785Z,99667.67
2019-02-11T07:30:46.269Z,99652.59
2019-02-11T07:33:16.738Z,99657.36
2019-02-11T07:35:47.274Z,99655.40
2019-02-11T07:38:17.754Z,99654.69
2019-02-11T07:40:48.310Z,99657.23
2019-02-11T07:43:22.215Z,99652.63
2019-02-11T07:46:11.586Z,99649.12
2019-02-11T07:48:42.074Z,99639.41
2019-02-11T07:51:12.542Z,99634.34
2019-02-11T07:53:43.045Z,99640.24
2019-02-11T07:56:13.532Z,99645.30
2019-02-11T07:58:44.001Z,99640.68
2019-02-11T08:01:14.527Z,99636.64
2019-02-11T08:03:45.054Z,99631.41
2019-02-11T08:06:15.545Z,99630.24
2019-02-11T08:08:46.647Z,99622.56
2019-02-11T08:11:17.163Z,99610.34
2019-02-11T08:13:47.630Z,99601.80
2019-02-11T08:16:18.115Z,99611.00
2019-02-11T08:18:48.622Z,99607.00
2019-02-11T08:21:19.121Z,99587.78
2019-02-11T08:23:49.601Z,99585.55
2019-02-11T08:26:20.093Z,99587.50
2019-02-11T08:28:50.580Z,99585.98
2019-02-11T08:31:21.205Z,99582.31
2019-02-11T08:33:51.859Z,99575.06
2019-02-11T08:36:22.376Z,99558.79
2019-02-11T08:38:52.906Z,99560.09
2019-02-11T08:41:23.415Z,99567.02
2019-02-11T08:43:54.457Z,99571.19
2019-02-11T08:46:25.022Z,99566.89
2019-02-11T08:48:55.598Z,99557.11
2019-02-11T08:51:26.248Z,99558.72
2019-02-11T08:53:56.707Z,99560.07
2019-02-11T08:56:27.211Z,99561.01
2019-02-11T08:58:57.848Z,99569.61
2019-02-11T09:01:28.407Z,99572.91
2019-02-11T09:03:58.913Z,99572.05
2019-02-11T09:06:29.374Z,99553.38
2019-02-11T09:09:00.122Z,99534.98
2019-02-11T09:11:30.585Z,99528.06
2019-02-11T09:14:01.108Z,99535.11
2019-02-11T09:16:31.822Z,99523.70
2019-02-11T09:19:02.297Z,99507.75
2019-02-11T09:21:32.798Z,99506.17
2019-02-11T09:24:03.310Z,99508.53
2019-02-11T09:26:33.874Z,99510.84
2019-02-11T09:29:04.356Z,99503.02
2019-02-11T09:31:34.832Z,99501.88
2019-02-11T09:34:05.369Z,99501.34
2019-02-11T09:36:36.492Z,99499.35
2019-02-11T09:39:09.193Z,99489.20
2019-02-11T09:41:40.015Z,99484.41
2019-02-11T09:44:12.198Z,99496.15
2019-02-11T09:46:43.461Z,99482.20
2019-02-11T09:49:14.210Z,99483.29
2019-02-11T09:51:47.436Z,99465.13
2019-02-11T09:54:17.968Z,99461.95
2019-02-11T09:56:48.587Z,99458.69
2019-02-11T09:59:19.146Z,99452.08
2019-02-11T10:01:49.664Z,99442.37
2019-02-11T10:04:20.130Z,99432.43
2019-02-11T10:06:50.750Z,99427.59
2019-02-11T10:09:21.305Z,99316.99
2019-02-11T10:11:51.785Z,99408.05
2019-02-11T10:14:22.293Z,99402.55
2019-02-11T10:16:52.761Z,99397.66
2019-02-11T10:19:23.271Z,99395.30
2019-02-11T10:21:53.768Z,99395.62
2019-02-11T10:24:24.246Z,99393.53
2019-02-11T10:26:54.753Z,99388.14
2019-02-11T10:29:25.218Z,99378.39
2019-02-11T10:31:55.750Z,99379.50
2019-02-11T10:34:26.274Z,99374.48
2019-02-11T10:36:56.849Z,99370.09
2019-02-11T10:39:27.359Z,99366.55
2019-02-11T10:41:57.836Z,99352.05
2019-02-11T10:44:28.450Z,99344.70
2019-02-11T10:46:59.052Z,99338.43
2019-02-11T10:49:29.534Z,99341.91
2019-02-11T10:52:00.351Z,99348.13
2019-02-11T10:54:31.005Z,99336.19
2019-02-11T10:57:01.687Z,99321.88
2019-02-11T10:59:32.366Z,99311.83
2019-02-11T11:02:02.880Z,99199.84
2019-02-11T11:04:33.496Z,99303.48
2019-02-11T11:07:04.145Z,99308.76
2019-02-11T11:09:34.853Z,99300.77
2019-02-11T11:12:05.681Z,99311.25
2019-02-11T11:14:36.186Z,99305.17
2019-02-11T11:17:08.243Z,99305.60
2019-02-11T11:19:38.765Z,99304.28
2019-02-11T11:22:09.863Z,99292.67
2019-02-11T11:24:40.318Z,99290.58
2019-02-11T11:27:10.823Z,99285.44
2019-02-11T11:29:41.351Z,99277.59
2019-02-11T11:32:11.820Z,99268.07
2019-02-11T11:34:42.617Z,99272.02
2019-02-11T11:37:13.459Z,99271.18
2019-02-11T11:39:44.098Z,99269.74
2019-02-11T11:42:14.619Z,99260.73
2019-02-11T11:44:45.097Z,99255.14
2019-02-11T11:47:15.818Z,99232.45
2019-02-11T11:49:46.426Z,99234.59
2019-02-11T11:52:17.060Z,99222.75
2019-02-11T11:54:47.798Z,99223.27
2019-02-11T11:57:18.334Z,99216.79
2019-02-11T11:59:51.196Z,99217.93
2019-02-11T12:02:21.733Z,99208.20
2019-02-11T12:04:52.277Z,99187.02
2019-02-11T12:07:28.615Z,99190.60
2019-02-11T12:10:04.788Z,99181.16
2019-02-11T12:12:37.554Z,99171.72
2019-02-11T12:15:09.351Z,99166.17
2019-02-11T12:20:33.741Z,99157.16
2019-02-11T12:23:04.818Z,99153.53
2019-02-11T12:25:36.020Z,99155.47
2019-02-11T12:28:06.819Z,99159.83
2019-02-11T12:30:41.141Z,99148.46
2019-02-11T12:33:12.393Z,99132.26
2019-02-11T12:35:43.441Z,99134.98
2019-02-11T12:38:14.298Z,99136.95
2019-02-11T12:40:45.216Z,99125.20
2019-02-11T12:43:16.344Z,99126.56
2019-02-11T12:45:47.135Z,99122.53
2019-02-11T12:48:18.073Z,99123.32
2019-02-11T12:50:49.632Z,99111.13
2019-02-11T12:53:20.189Z,99097.89
2019-02-11T12:55:50.727Z,99087.63
2019-02-11T12:58:21.228Z,99098.70
2019-02-11T13:00:51.753Z,99114.75
2019-02-11T13:03:22.249Z,99117.44
2019-02-11T13:05:52.822Z,99120.67
2019-02-11T13:08:23.406Z,99118.27
2019-02-11T13:10:54.006Z,99123.66
2019-02-11T13:13:24.496Z,99124.48
2019-02-11T13:16:00.929Z,99118.75
2019-02-11T13:18:27.497Z,99109.03
2019-02-11T13:20:58.167Z,99101.39
2019-02-11T13:23:28.700Z,99108.72
2019-02-11T13:25:59.224Z,99107.33
2019-02-11T13:28:29.699Z,99118.40
2019-02-11T13:31:00.239Z,99115.50
2019-02-11T13:33:30.792Z,99117.42
2019-02-11T13:36:01.523Z,99122.92
2019-02-11T13:38:32.056Z,99121.58
2019-02-11T13:41:02.558Z,99122.36
2019-02-11T13:43:33.202Z,99117.97
2019-02-11T13:46:03.767Z,99119.34
2019-02-11T13:48:34.800Z,99108.22
2019-02-11T13:51:05.530Z,99116.91
2019-02-11T13:53:36.141Z,99116.63
2019-02-11T13:56:07.191Z,99114.22
2019-02-11T13:58:37.891Z,99116.86
2019-02-11T14:01:10.340Z,99127.69
2019-02-11T14:03:41.183Z,99122.02
2019-02-11T14:06:11.913Z,99129.85
2019-02-11T14:08:42.465Z,99128.50
2019-02-11T14:11:12.995Z,99121.76
2019-02-11T14:14:00.694Z,99122.08
2019-02-11T14:16:15.640Z,99109.37
2019-02-11T14:18:46.283Z,99115.61
2019-02-11T14:21:16.774Z,99109.09
2019-02-11T14:23:47.444Z,98992.77
2019-02-11T14:26:17.963Z,99110.45
2019-02-11T14:28:49.685Z,99104.48
2019-02-11T14:31:20.521Z,99103.10
2019-02-11T14:33:51.056Z,99110.94
2019-02-11T14:36:21.716Z,99104.95
2019-02-11T14:38:52.258Z,99103.80
2019-02-11T14:41:22.866Z,99106.75
2019-02-11T14:43:53.386Z,99099.70
2019-02-11T14:46:23.897Z,99093.17
2019-02-11T14:48:54.413Z,99087.20
2019-02-11T14:51:24.884Z,99082.35
2019-02-11T14:53:55.416Z,99070.72
2019-02-11T14:56:25.889Z,99065.05
2019-02-11T14:58:56.847Z,99068.33
2019-02-11T15:01:27.368Z,99074.02
2019-02-11T15:03:57.894Z,99080.75
2019-02-11T15:06:28.360Z,99082.57
2019-02-11T15:08:58.865Z,99085.02
2019-02-11T15:11:29.345Z,99084.67
2019-02-11T15:13:59.863Z,99082.23
2019-02-11T15:16:30.449Z,99084.89
2019-02-11T15:19:00.965Z,99096.52
2019-02-11T15:21:31.554Z,99096.74
2019-02-11T15:24:02.065Z,99082.23
2019-02-11T15:26:33.087Z,99096.39
2019-02-11T15:29:03.598Z,99084.72
2019-02-11T15:31:34.148Z,99079.78
2019-02-11T15:34:04.657Z,99061.03
2019-02-11T15:36:35.124Z,99058.00
2019-02-11T15:39:06.357Z,99067.44
2019-02-11T15:41:36.833Z,99067.11
2019-02-11T15:44:07.313Z,99065.40
2019-02-11T15:46:37.823Z,99056.05
2019-02-11T15:49:08.304Z,99056.39
2019-02-11T15:51:38.813Z,99062.77
2019-02-11T15:54:09.330Z,99048.39
2019-02-11T15:56:39.903Z,99041.53
2019-02-11T15:59:10.377Z,99037.47
2019-02-11T16:01:40.891Z,99031.45
2019-02-11T16:04:12.237Z,99040.59
2019-02-11T16:06:42.849Z,99036.17
2019-02-11T16:09:13.566Z,99027.69
2019-02-11T16:11:44.006Z,99019.48
2019-02-11T16:14:14.505Z,99013.13
2019-02-11T16:16:44.976Z,99011.61
2019-02-11T16:19:15.489Z,99018.58
2019-02-11T16:21:45.956Z,99019.86
2019-02-11T16:24:16.472Z,99012.73
2019-02-11T16:26:46.974Z,98998.63
2019-02-11T16:29:17.482Z,98995.86
2019-02-11T16:31:47.930Z,99000.63
2019-02-11T16:34:18.428Z,99008.13
2019-02-11T16:36:48.892Z,99015.82
2019-02-11T16:39:19.349Z,99017.60
2019-02-11T16:41:49.858Z,99023.13
2019-02-11T16:44:20.324Z,99033.78
2019-02-11T16:46:50.932Z,99029.99
2019-02-11T16:49:21.396Z,99038.56
2019-02-11T16:51:51.899Z,99024.97
2019-02-11T16:54:22.401Z,99012.70
2019-02-11T16:56:52.908Z,99015.90
2019-02-11T16:59:23.393Z,98996.48
2019-02-11T17:01:53.892Z,98999.38
2019-02-11T17:04:24.355Z,98999.14
2019-02-11T17:06:54.853Z,98995.63
2019-02-11T17:09:25.352Z,99004.46
2019-02-11T17:11:55.852Z,99015.49
2019-02-11T17:14:26.318Z,99009.61
2019-02-11T17:16:56.839Z,99014.83
2019-02-11T17:19:27.314Z,99017.98
2019-02-11T17:21:57.777Z,98997.97
2019-02-11T17:24:28.285Z,98988.97
2019-02-11T17:26:58.814Z,98981.56
2019-02-11T17:29:29.430Z,98978.58
2019-02-11T17:32:00.043Z,98973.67
2019-02-11T17:34:30.561Z,98985.52
2019-02-11T17:37:01.029Z,98991.22
2019-02-11T17:39:31.486Z,98986.05
2019-02-11T17:42:02.146Z,98988.89
2019-02-11T17:44:32.617Z,98988.05
2019-02-11T17:47:03.115Z,98977.25
2019-02-11T17:49:33.678Z,98969.92
2019-02-11T17:52:05.933Z,98969.64
2019-02-11T17:54:36.394Z,98962.36
2019-02-11T17:57:06.986Z,98947.24
2019-02-11T17:59:37.540Z,98943.70
2019-02-11T18:02:11.825Z,98947.43
2019-02-11T18:04:42.356Z,98948.61
2019-02-11T18:07:12.866Z,98951.22
2019-02-11T18:09:43.347Z,98946.63
2019-02-11T18:12:13.813Z,98947.94
2019-02-11T18:14:44.316Z,98935.68
2019-02-11T18:17:14.773Z,98951.36
2019-02-11T18:19:45.277Z,98957.13
2019-02-11T18:22:15.781Z,98955.31
2019-02-11T18:24:46.244Z,98943.45
2019-02-11T18:27:16.749Z,98935.37
2019-02-11T18:29:47.217Z,98950.20
2019-02-11T18:32:17.715Z,98934.55
2019-02-11T18:34:48.164Z,98938.83
2019-02-11T18:37:18.663Z,98950.69
2019-02-11T18:39:49.162Z,98954.73
2019-02-11T18:42:19.626Z,98943.64
2019-02-11T18:44:50.132Z,98958.42
2019-02-11T18:47:20.601Z,98960.89
2019-02-11T18:49:51.104Z,98939.05
2019-02-11T18:52:21.604Z,98936.36
2019-02-11T18:54:52.055Z,98936.36
2019-02-11T18:57:22.512Z,98932.39
2019-02-11T18:59:53.038Z,98932.67
2019-02-11T19:02:23.508Z,98929.44
2019-02-11T19:04:53.971Z,98922.11
2019-02-11T19:07:24.641Z,98914.68
2019-02-11T19:09:55.099Z,98916.84
2019-02-11T19:12:25.571Z,98805.99
2019-02-11T19:14:56.026Z,98913.07
2019-02-11T19:17:26.684Z,98913.25
2019-02-11T19:19:57.106Z,98910.86
2019-02-11T19:22:27.611Z,98911.63
2019-02-11T19:24:58.087Z,98916.57
2019-02-11T19:27:28.601Z,98919.01
2019-02-11T19:29:59.084Z,98913.61
2019-02-11T19:32:29.570Z,98905.06
2019-02-11T19:35:00.090Z,98897.44
2019-02-11T19:37:30.661Z,98914.15
2019-02-11T19:40:01.141Z,98909.88
2019-02-11T19:42:31.655Z,98902.24
2019-02-11T19:45:02.167Z,98903.22
2019-02-11T19:47:32.637Z,98914.87
2019-02-11T19:50:03.108Z,98907.95
2019-02-11T19:52:33.626Z,98915.14
2019-02-11T19:55:04.255Z,98908.75
2019-02-11T19:57:34.753Z,98896.39
2019-02-11T20:00:05.996Z,98890.77
2019-02-11T20:02:36.551Z,98903.41
2019-02-11T20:05:07.673Z,98895.32
2019-02-11T20:07:38.270Z,98899.05
2019-02-11T20:10:10.644Z,98893.70
2019-02-11T20:12:41.102Z,98884.03
2019-02-11T20:15:14.032Z,98889.65
2019-02-11T20:17:44.493Z,98889.06
2019-02-11T20:20:17.183Z,98761.89
2019-02-11T20:22:47.787Z,98874.52
2019-02-11T20:25:18.241Z,98869.88
2019-02-11T20:27:48.853Z,98860.94
2019-02-11T20:30:21.482Z,98734.91
2019-02-11T20:32:51.981Z,98870.55
2019-02-11T20:35:22.431Z,98865.97
2019-02-11T20:37:53.028Z,98859.95
2019-02-11T20:40:24.144Z,98872.80
2019-02-11T20:42:54.636Z,98866.23
2019-02-11T20:45:26.604Z,98846.20
2019-02-11T20:47:57.101Z,98831.15
2019-02-11T20:50:27.706Z,98853.07
2019-02-11T20:52:58.225Z,98870.05
2019-02-11T20:55:28.691Z,98849.94
2019-02-11T20:57:59.373Z,98835.37
2019-02-11T21:00:29.960Z,98837.61
2019-02-11T21:03:08.166Z,98833.92
2019-02-11T21:05:32.622Z,98849.74
2019-02-11T21:08:03.120Z,98844.45
2019-02-11T21:10:33.576Z,98841.85
2019-02-11T21:13:04.035Z,98842.20
2019-02-11T21:15:34.533Z,98839.14
2019-02-11T21:18:05.135Z,98863.92
2019-02-11T21:20:37.390Z,98838.02
2019-02-11T21:23:09.712Z,98838.12
2019-02-11T21:25:40.217Z,98846.02
2019-02-11T21:28:10.675Z,98837.44
2019-02-11T21:30:41.167Z,98843.81
2019-02-11T21:33:11.621Z,98817.84
2019-02-11T21:35:42.139Z,98815.55
2019-02-11T21:38:12.574Z,98829.45
2019-02-11T21:40:43.102Z,98822.20
2019-02-11T21:43:13.596Z,98827.92
2019-02-11T21:45:44.060Z,98822.89
2019-02-11T21:48:14.574Z,98808.78
2019-02-11T21:50:45.014Z,98811.92
2019-02-11T21:53:15.513Z,98800.73
2019-02-11T21:55:46.009Z,98818.25
2019-02-11T21:58:16.465Z,98821.17
2019-02-11T22:00:46.961Z,98795.94
2019-02-11T22:03:17.412Z,98785.11
2019-02-11T22:05:47.911Z,98788.26
2019-02-11T22:08:18.372Z,98780.22
2019-02-11T22:10:48.873Z,98776.30
2019-02-11T22:13:19.340Z,98777.21
2019-02-11T22:15:49.842Z,98760.81
2019-02-11T22:18:20.400Z,98748.16
2019-02-11T22:20:50.909Z,98760.46
2019-02-11T22:23:21.470Z,98755.84
2019-02-11T22:25:51.973Z,98757.86
2019-02-11T22:28:22.480Z,98762.25
2019-02-11T22:30:52.936Z,98752.02
2019-02-11T22:33:23.437Z,98753.95
2019-02-11T22:35:53.921Z,98748.20
2019-02-11T22:38:24.499Z,98736.44
2019-02-11T22:40:54.951Z,98742.09
2019-02-11T22:43:25.443Z,98736.94
2019-02-11T22:45:55.949Z,98746.40
2019-02-11T22:48:26.392Z,98752.47
2019-02-11T22:50:56.855Z,98760.91
2019-02-11T22:53:27.352Z,98757.27
2019-02-11T22:55:57.828Z,98759.02
2019-02-11T22:58:28.333Z,98755.75
2019-02-11T23:01:04.892Z,98753.00
2019-02-11T23:03:36.473Z,98737.68
2019-02-11T23:06:07.204Z,98747.44
2019-02-11T23:08:37.658Z,98749.85
2019-02-11T23:11:08.151Z,98743.55
2019-02-11T23:13:38.613Z,98755.19
2019-02-11T23:16:09.108Z,98762.77
2019-02-11T23:18:39.576Z,98779.88
2019-02-11T23:21:10.025Z,98785.14
2019-02-11T23:23:40.528Z,98764.66
2019-02-11T23:26:10.977Z,98805.47
2019-02-11T23:28:41.432Z,98828.69
2019-02-11T23:31:11.929Z,98823.31
2019-02-11T23:33:42.380Z,98833.43
2019-02-11T23:36:12.881Z,98840.44
2019-02-11T23:38:43.342Z,98845.02
2019-02-11T23:41:13.909Z,98843.50
2019-02-11T23:43:44.422Z,98854.72
2019-02-11T23:46:14.874Z,98848.97
2019-02-11T23:48:45.371Z,98837.80
2019-02-11T23:51:15.830Z,98848.58
2019-02-11T23:53:46.328Z,98847.70
2019-02-11T23:56:16.822Z,98870.22
2019-02-11T23:58:47.270Z,98864.22
